sensor_id;sensor_type;location;lat;lon;timestamp;pressure;altitude;pressure_sealevel;temperature;humidity
3832;BME280;12460;42.662;23.288;2024-03-17T00:09:20;94798.69;;;9.79;60.39
3832;BME280;12460;42.662;23.288;2024-03-17T00:24:21;94799.41;;;9.65;60.42
3832;BME280;12460;42.662;23.288;2024-03-17T00:39:22;94794.31;;;9.48;60.75
3832;BME280;12460;42.662;23.288;2024-03-17T00:54:23;94798.81;;;9.36;60.79
3832;BME280;12460;42.662;23.288;2024-03-17T01:09:24;94804.19;;;9.27;61.43
3832;BME280;12460;42.662;23.288;2024-03-17T01:24:25;94786.53;;;9.03;61.74
3832;BME280;12460;42.662;23.288;2024-03-17T01:39:29;94810.78;;;8.93;61.90
3832;BME280;12460;42.662;23.288;2024-03-17T01:54:30;94782.09;;;8.72;61.90
3832;BME280;12460;42.662;23.288;2024-03-17T02:09:31;94795.72;;;8.68;61.99
3832;BME280;12460;42.662;23.288;2024-03-17T02:24:32;94786.28;;;8.51;62.43
3832;BME280;12460;42.662;23.288;2024-03-17T02:39:34;94789.75;;;8.36;62.56
3832;BME280;12460;42.662;23.288;2024-03-17T02:54:38;94783.75;;;8.32;62.86
3832;BME280;12460;42.662;23.288;2024-03-17T03:09:39;94777.72;;;8.28;63.01
3832;BME280;12460;42.662;23.288;2024-03-17T03:24:40;94769.22;;;8.13;62.74
3832;BME280;12460;42.662;23.288;2024-03-17T03:39:41;94769.84;;;7.98;62.88
3832;BME280;12460;42.662;23.288;2024-03-17T03:54:42;94801.78;;;8.03;63.28
3832;BME280;12460;42.662;23.288;2024-03-17T04:09:42;94814.31;;;8.02;63.24
3832;BME280;12460;42.662;23.288;2024-03-17T04:24:47;94824.88;;;7.96;63.19
3832;BME280;12460;42.662;23.288;2024-03-17T04:39:49;94838.75;;;8.01;63.63
3832;BME280;12460;42.662;23.288;2024-03-17T04:54:50;94856.22;;;8.15;63.02
3832;BME280;12460;42.662;23.288;2024-03-17T05:09:51;94873.75;;;8.57;62.35
3832;BME280;12460;42.662;23.288;2024-03-17T05:24:51;94897.09;;;10.17;58.79
3832;BME280;12460;42.662;23.288;2024-03-17T05:39:54;94874.34;;;12.50;53.74
3832;BME280;12460;42.662;23.288;2024-03-17T05:54:55;94875.00;;;13.24;51.81
3832;BME280;12460;42.662;23.288;2024-03-17T06:09:56;94875.22;;;14.87;47.52
3832;BME280;12460;42.662;23.288;2024-03-17T06:24:57;94878.75;;;16.90;43.52
3832;BME280;12460;42.662;23.288;2024-03-17T06:39:58;94903.25;;;18.22;40.55
3832;BME280;12460;42.662;23.288;2024-03-17T06:54:59;94908.59;;;18.95;38.34
3832;BME280;12460;42.662;23.288;2024-03-17T07:27:01;94911.13;;;18.12;38.96
3832;BME280;12460;42.662;23.288;2024-03-17T07:42:02;94906.41;;;17.41;39.96
3832;BME280;12460;42.662;23.288;2024-03-17T07:57:03;94913.03;;;16.83;40.91
3832;BME280;12460;42.662;23.288;2024-03-17T08:12:04;94904.75;;;16.46;41.55
3832;BME280;12460;42.662;23.288;2024-03-17T08:27:05;94897.59;;;16.45;41.60
3832;BME280;12460;42.662;23.288;2024-03-17T08:42:07;94876.44;;;18.48;38.95
3832;BME280;12460;42.662;23.288;2024-03-17T08:57:08;94867.31;;;19.42;36.94
3832;BME280;12460;42.662;23.288;2024-03-17T09:12:09;94862.97;;;20.79;35.57
3832;BME280;12460;42.662;23.288;2024-03-17T09:27:10;94848.69;;;23.09;32.17
3832;BME280;12460;42.662;23.288;2024-03-17T09:42:19;94831.28;;;24.38;29.40
3832;BME280;12460;42.662;23.288;2024-03-17T09:57:22;94820.88;;;24.66;27.33
3832;BME280;12460;42.662;23.288;2024-03-17T10:12:28;94821.81;;;22.55;27.78
3832;BME280;12460;42.662;23.288;2024-03-17T10:27:29;94823.28;;;21.26;29.33
3832;BME280;12460;42.662;23.288;2024-03-17T10:42:30;94826.84;;;20.72;30.00
3832;BME280;12460;42.662;23.288;2024-03-17T10:57:44;94823.50;;;20.37;29.60
3832;BME280;12460;42.662;23.288;2024-03-17T11:12:54;94796.88;;;21.00;29.96
3832;BME280;12460;42.662;23.288;2024-03-17T11:27:57;94797.13;;;21.04;30.59
3832;BME280;12460;42.662;23.288;2024-03-17T11:43:03;94774.25;;;22.19;28.59
3832;BME280;12460;42.662;23.288;2024-03-17T11:58:12;94748.56;;;22.21;27.29
3832;BME280;12460;42.662;23.288;2024-03-17T12:13:16;94756.06;;;22.44;26.99
3832;BME280;12460;42.662;23.288;2024-03-17T12:28:16;94760.75;;;20.79;29.42
3832;BME280;12460;42.662;23.288;2024-03-17T12:43:17;94754.91;;;19.73;33.04
3832;BME280;12460;42.662;23.288;2024-03-17T12:58:18;94754.84;;;19.22;34.30
3832;BME280;12460;42.662;23.288;2024-03-17T13:13:38;94740.09;;;18.77;35.97
3832;BME280;12460;42.662;23.288;2024-03-17T13:28:38;94744.41;;;18.44;37.36
3832;BME280;12460;42.662;23.288;2024-03-17T13:43:39;94750.34;;;18.36;37.87
3832;BME280;12460;42.662;23.288;2024-03-17T13:58:40;94755.66;;;17.95;39.00
3832;BME280;12460;42.662;23.288;2024-03-17T14:13:41;94726.19;;;17.46;40.60
3832;BME280;12460;42.662;23.288;2024-03-17T14:28:42;94729.19;;;16.95;41.93
3832;BME280;12460;42.662;23.288;2024-03-17T14:43:43;94704.50;;;16.55;43.11
3832;BME280;12460;42.662;23.288;2024-03-17T14:58:45;94684.91;;;16.28;44.13
3832;BME280;12460;42.662;23.288;2024-03-17T15:13:50;94706.59;;;16.24;44.10
3832;BME280;12460;42.662;23.288;2024-03-17T15:28:51;94701.09;;;16.26;43.84
3832;BME280;12460;42.662;23.288;2024-03-17T15:43:52;94700.94;;;15.93;44.47
3832;BME280;12460;42.662;23.288;2024-03-17T15:58:52;94707.59;;;15.67;44.94
3832;BME280;12460;42.662;23.288;2024-03-17T16:13:58;94690.69;;;15.09;45.72
3832;BME280;12460;42.662;23.288;2024-03-17T16:29:00;94729.59;;;14.90;47.44
3832;BME280;12460;42.662;23.288;2024-03-17T16:44:18;94727.50;;;14.61;47.65
3832;BME280;12460;42.662;23.288;2024-03-17T16:59:20;94759.69;;;14.56;48.78
3832;BME280;12460;42.662;23.288;2024-03-17T17:14:22;94769.03;;;14.40;49.32
3832;BME280;12460;42.662;23.288;2024-03-17T17:29:25;94769.28;;;13.98;50.66
3832;BME280;12460;42.662;23.288;2024-03-17T17:44:27;94796.13;;;13.80;52.15
3832;BME280;12460;42.662;23.288;2024-03-17T17:59:28;94807.75;;;13.57;52.95
3832;BME280;12460;42.662;23.288;2024-03-17T18:14:29;94783.63;;;13.29;52.88
3832;BME280;12460;42.662;23.288;2024-03-17T18:29:30;94808.97;;;13.20;52.93
3832;BME280;12460;42.662;23.288;2024-03-17T18:44:31;94817.84;;;13.16;54.28
3832;BME280;12460;42.662;23.288;2024-03-17T18:59:32;94821.00;;;13.03;55.09
3832;BME280;12460;42.662;23.288;2024-03-17T19:14:33;94817.31;;;12.93;56.46
3832;BME280;12460;42.662;23.288;2024-03-17T19:29:34;94821.22;;;12.98;56.41
3832;BME280;12460;42.662;23.288;2024-03-17T19:44:35;94811.44;;;12.99;57.24
3832;BME280;12460;42.662;23.288;2024-03-17T19:59:36;94807.69;;;12.79;57.49
3832;BME280;12460;42.662;23.288;2024-03-17T20:14:37;94801.88;;;12.60;56.36
3832;BME280;12460;42.662;23.288;2024-03-17T20:29:38;94810.13;;;12.41;55.27
3832;BME280;12460;42.662;23.288;2024-03-17T20:44:39;94796.88;;;12.09;54.66
3832;BME280;12460;42.662;23.288;2024-03-17T20:59:40;94798.31;;;11.93;54.58
3832;BME280;12460;42.662;23.288;2024-03-17T21:14:41;94781.72;;;11.72;55.15
3832;BME280;12460;42.662;23.288;2024-03-17T21:29:42;94778.28;;;11.49;55.80
3832;BME280;12460;42.662;23.288;2024-03-17T21:44:43;94764.13;;;11.24;55.21
3832;BME280;12460;42.662;23.288;2024-03-17T21:59:44;94769.06;;;11.16;55.39
3832;BME280;12460;42.662;23.288;2024-03-17T22:14:48;94752.63;;;10.98;55.84
3832;BME280;12460;42.662;23.288;2024-03-17T22:29:49;94747.75;;;10.98;55.41
3832;BME280;12460;42.662;23.288;2024-03-17T22:44:50;94761.84;;;10.91;55.15
3832;BME280;12460;42.662;23.288;2024-03-17T22:59:51;94742.00;;;10.74;53.73
3832;BME280;12460;42.662;23.288;2024-03-17T23:14:52;94730.41;;;10.70;53.31
3832;BME280;12460;42.662;23.288;2024-03-17T23:29:52;94728.72;;;10.67;52.98
3832;BME280;12460;42.662;23.288;2024-03-17T23:44:54;94719.59;;;10.51;52.62
3832;BME280;12460;42.662;23.288;2024-03-17T23:59:55;94708.94;;;10.49;52.58
